Capt. George Brumley — WDI3717 — position and weather

sailwx.info

Track history (hours):
 
Tides and Currents Weather Stations Pressure Air Temp Water Temp Dewpoint Dewpoint Depression Visibility Wind Speed Wind Dir Waves Ship Positions

Capt. George Brumley

Owner: Genesis Marine, LLC, Houston, TX. More information available from US FCC via Universal Licensing System and Coast Guard Vessel Documentation Center.

Last reported at 2018-Apr-25 14:52 UTC. Time now 2018-Apr-26 11:08 UTC.
Position N 29°49' W 092°02'.

Length 25 m; draft 3 m.

Type: Other ship. MMSI: 367691190.

Date/timePositionNaut miles runAvg speedWind from/ knotsBaromVisibWave heightAir tempDewpointWater temp
2018-Apr-25 14:52N 29°49' W 092°02'2 4.5
2018-Apr-25 14:30N 29°49' W 092°03'2 4.5
2018-Apr-25 14:00N 29°48' W 092°06'2 4.4
2018-Apr-25 13:30N 29°47' W 092°08'2 4.7
2018-Apr-25 13:00N 29°47' W 092°11'1 1.6
2018-Apr-25 12:30N 29°47' W 092°12'0 0.0
2018-Apr-25 12:00N 29°47' W 092°12'0 0.0
2018-Apr-25 11:30N 29°47' W 092°12'0 0.0
2018-Apr-25 10:59N 29°47' W 092°12'0 0.0
2018-Apr-25 10:30N 29°47' W 092°12'0 0.0
2018-Apr-25 09:59N 29°47' W 092°12'0 0.0
2018-Apr-25 09:30N 29°47' W 092°12'0 0.0
2018-Apr-25 09:00N 29°47' W 092°12'0 0.0
2018-Apr-25 08:29N 29°47' W 092°12'0 0.0
2018-Apr-25 08:00N 29°47' W 092°12'0 0.0
2018-Apr-25 07:30N 29°47' W 092°12'1 2.2
2018-Apr-25 07:00N 29°47' W 092°13'2 3.9
2018-Apr-25 06:30N 29°48' W 092°15'2 4.3
2018-Apr-25 06:00N 29°49' W 092°17'42 3.8
2018-Apr-24 19:08N 29°56' W 093°04'2 4.1
2018-Apr-24 18:41N 29°56' W 093°07'1 3.9
2018-Apr-24 18:30N 29°56' W 093°07'2 3.9
2018-Apr-24 18:00N 29°56' W 093°10'2 4.3
2018-Apr-24 17:30N 29°58' W 093°11'2 4.3
2018-Apr-24 17:00N 29°59' W 093°13'2 3.9
2018-Apr-24 16:30N 30°01' W 093°14'1 2.2
2018-Apr-24 16:00N 30°02' W 093°15'1 2.2
2018-Apr-24 15:30N 30°03' W 093°16'2 3.8
2018-Apr-24 15:00N 30°04' W 093°16'1 2.9
2018-Apr-24 14:30N 30°05' W 093°18'1 1.7
2018-Apr-24 14:00N 30°06' W 093°18'0 0.2
2018-Apr-24 13:30N 30°06' W 093°18'0 0.0
2018-Apr-24 13:00N 30°06' W 093°18'0 0.0
2018-Apr-24 12:30N 30°06' W 093°18'0 0.0
2018-Apr-24 12:00N 30°06' W 093°18'0 0.0
2018-Apr-24 11:29N 30°06' W 093°18'0 0.0
2018-Apr-24 10:55N 30°06' W 093°18'0 0.0
2018-Apr-24 10:28N 30°06' W 093°18'0 0.3
2018-Apr-24 10:00N 30°06' W 093°18'1 2.8
2018-Apr-24 09:30N 30°05' W 093°20'2 4.2
2018-Apr-24 09:00N 30°04' W 093°21'2 4.3
2018-Apr-24 08:29N 30°04' W 093°24'2 3.9
2018-Apr-24 08:00N 30°04' W 093°26'2 4.5
2018-Apr-24 07:30N 30°04' W 093°29'2 4.5
2018-Apr-24 07:00N 30°04' W 093°31'2 4.6
2018-Apr-24 06:30N 30°04' W 093°34'2 4.7
2018-Apr-24 06:00N 30°04' W 093°37'2 4.7
2018-Apr-24 05:30N 30°04' W 093°39'2 4.8
2018-Apr-24 05:00N 30°03' W 093°42'2 3.9
2018-Apr-24 04:30N 30°03' W 093°44'2 4.2
2018-Apr-24 04:00N 30°01' W 093°45'2 4.5
2018-Apr-24 03:30N 29°59' W 093°47'3 6.0
2018-Apr-24 03:00N 29°58' W 093°51'2 4.9
2018-Apr-24 02:30N 29°56' W 093°52'3 6.1
2018-Apr-24 02:00N 29°54' W 093°54'3 5.8
2018-Apr-24 01:30N 29°52' W 093°56'3 5.8
2018-Apr-24 01:00N 29°49' W 093°58'0 0.9
2018-Apr-24 00:30N 29°49' W 093°59'0 0.0
2018-Apr-24 00:00N 29°49' W 093°59'0 0.0
2018-Apr-23 23:30N 29°49' W 093°59'0 0.0
2018-Apr-23 23:00N 29°49' W 093°59'0 0.0
2018-Apr-23 22:30N 29°49' W 093°59'0 0.0
2018-Apr-23 22:00N 29°49' W 093°59'0 0.0
2018-Apr-23 21:30N 29°49' W 093°59'0 0.0
2018-Apr-23 21:00N 29°49' W 093°59'0 0.0
2018-Apr-23 20:30N 29°49' W 093°59'0 0.0
2018-Apr-23 20:00N 29°49' W 093°59'0 0.0
2018-Apr-23 19:30N 29°49' W 093°59'0 0.0
2018-Apr-23 19:00N 29°49' W 093°59'0 0.8
2018-Apr-23 18:30N 29°49' W 093°59'2 3.1
2018-Apr-23 18:00N 29°48' W 094°00'2 4.3
2018-Apr-23 17:30N 29°46' W 094°02'2 4.1
2018-Apr-23 17:00N 29°45' W 094°04'2 4.0
2018-Apr-23 16:30N 29°44' W 094°06'2 3.5
2018-Apr-23 16:00N 29°43' W 094°07'2 4.1
2018-Apr-23 15:30N 29°42' W 094°09'2 4.0
2018-Apr-23 15:00N 29°41' W 094°12'2 4.2
2018-Apr-23 14:30N 29°40' W 094°14'2 4.3
2018-Apr-23 14:00N 29°39' W 094°16'2 4.2
2018-Apr-23 13:30N 29°38' W 094°18'2 4.1
2018-Apr-23 13:00N 29°37' W 094°20'2 4.2
2018-Apr-23 12:30N 29°36' W 094°22'2 3.8
2018-Apr-23 12:00N 29°36' W 094°24'2 3.8
2018-Apr-23 11:30N 29°34' W 094°25'2 4.2
2018-Apr-23 11:00N 29°34' W 094°28'2 3.8
2018-Apr-23 10:30N 29°32' W 094°29'2 4.1
2018-Apr-23 10:00N 29°31' W 094°31'2 3.5
2018-Apr-23 09:30N 29°30' W 094°33'0 0.2
2018-Apr-23 09:00N 29°30' W 094°33'0 0.0
2018-Apr-23 08:29N 29°30' W 094°33'0 0.1
2018-Apr-23 08:00N 29°30' W 094°33'1 2.4
2018-Apr-23 07:29N 29°30' W 094°34'2 4.2
2018-Apr-23 07:00N 29°29' W 094°36'2 4.5
2018-Apr-23 06:28N 29°28' W 094°39'  
Track history (hours):
 
Tides and Currents Weather Stations Pressure Air Temp Water Temp Dewpoint Dewpoint Depression Visibility Wind Speed Wind Dir Waves Ship Positions

Capt. George Brumley

Owner: Genesis Marine, LLC, Houston, TX. More information available from US FCC via Universal Licensing System and Coast Guard Vessel Documentation Center.

Last reported at 2018-Apr-25 14:52 UTC. Time now 2018-Apr-26 11:08 UTC.
Position N 29°49' W 092°02'.

Length 25 m; draft 3 m.

Type: Other ship. MMSI: 367691190.

Date/timePositionNaut miles runAvg speedWind from/ knotsBaromVisibWave heightAir tempDewpointWater temp
2018-Apr-25 14:52N 29°49' W 092°02'2 4.5
2018-Apr-25 14:30N 29°49' W 092°03'2 4.5
2018-Apr-25 14:00N 29°48' W 092°06'2 4.4
2018-Apr-25 13:30N 29°47' W 092°08'2 4.7
2018-Apr-25 13:00N 29°47' W 092°11'1 1.6
2018-Apr-25 12:30N 29°47' W 092°12'0 0.0
2018-Apr-25 12:00N 29°47' W 092°12'0 0.0
2018-Apr-25 11:30N 29°47' W 092°12'0 0.0
2018-Apr-25 10:59N 29°47' W 092°12'0 0.0
2018-Apr-25 10:30N 29°47' W 092°12'0 0.0
2018-Apr-25 09:59N 29°47' W 092°12'0 0.0
2018-Apr-25 09:30N 29°47' W 092°12'0 0.0
2018-Apr-25 09:00N 29°47' W 092°12'0 0.0
2018-Apr-25 08:29N 29°47' W 092°12'0 0.0
2018-Apr-25 08:00N 29°47' W 092°12'0 0.0
2018-Apr-25 07:30N 29°47' W 092°12'1 2.2
2018-Apr-25 07:00N 29°47' W 092°13'2 3.9
2018-Apr-25 06:30N 29°48' W 092°15'2 4.3
2018-Apr-25 06:00N 29°49' W 092°17'42 3.8
2018-Apr-24 19:08N 29°56' W 093°04'2 4.1
2018-Apr-24 18:41N 29°56' W 093°07'1 3.9
2018-Apr-24 18:30N 29°56' W 093°07'2 3.9
2018-Apr-24 18:00N 29°56' W 093°10'2 4.3
2018-Apr-24 17:30N 29°58' W 093°11'2 4.3
2018-Apr-24 17:00N 29°59' W 093°13'2 3.9
2018-Apr-24 16:30N 30°01' W 093°14'1 2.2
2018-Apr-24 16:00N 30°02' W 093°15'1 2.2
2018-Apr-24 15:30N 30°03' W 093°16'2 3.8
2018-Apr-24 15:00N 30°04' W 093°16'1 2.9
2018-Apr-24 14:30N 30°05' W 093°18'1 1.7
2018-Apr-24 14:00N 30°06' W 093°18'0 0.2
2018-Apr-24 13:30N 30°06' W 093°18'0 0.0
2018-Apr-24 13:00N 30°06' W 093°18'0 0.0
2018-Apr-24 12:30N 30°06' W 093°18'0 0.0
2018-Apr-24 12:00N 30°06' W 093°18'0 0.0
2018-Apr-24 11:29N 30°06' W 093°18'0 0.0
2018-Apr-24 10:55N 30°06' W 093°18'0 0.0
2018-Apr-24 10:28N 30°06' W 093°18'0 0.3
2018-Apr-24 10:00N 30°06' W 093°18'1 2.8
2018-Apr-24 09:30N 30°05' W 093°20'2 4.2
2018-Apr-24 09:00N 30°04' W 093°21'2 4.3
2018-Apr-24 08:29N 30°04' W 093°24'2 3.9
2018-Apr-24 08:00N 30°04' W 093°26'2 4.5
2018-Apr-24 07:30N 30°04' W 093°29'2 4.5
2018-Apr-24 07:00N 30°04' W 093°31'2 4.6
2018-Apr-24 06:30N 30°04' W 093°34'2 4.7
2018-Apr-24 06:00N 30°04' W 093°37'2 4.7
2018-Apr-24 05:30N 30°04' W 093°39'2 4.8
2018-Apr-24 05:00N 30°03' W 093°42'2 3.9
2018-Apr-24 04:30N 30°03' W 093°44'2 4.2
2018-Apr-24 04:00N 30°01' W 093°45'2 4.5
2018-Apr-24 03:30N 29°59' W 093°47'3 6.0
2018-Apr-24 03:00N 29°58' W 093°51'2 4.9
2018-Apr-24 02:30N 29°56' W 093°52'3 6.1
2018-Apr-24 02:00N 29°54' W 093°54'3 5.8
2018-Apr-24 01:30N 29°52' W 093°56'3 5.8
2018-Apr-24 01:00N 29°49' W 093°58'0 0.9
2018-Apr-24 00:30N 29°49' W 093°59'0 0.0
2018-Apr-24 00:00N 29°49' W 093°59'0 0.0
2018-Apr-23 23:30N 29°49' W 093°59'0 0.0
2018-Apr-23 23:00N 29°49' W 093°59'0 0.0
2018-Apr-23 22:30N 29°49' W 093°59'0 0.0
2018-Apr-23 22:00N 29°49' W 093°59'0 0.0
2018-Apr-23 21:30N 29°49' W 093°59'0 0.0
2018-Apr-23 21:00N 29°49' W 093°59'0 0.0
2018-Apr-23 20:30N 29°49' W 093°59'0 0.0
2018-Apr-23 20:00N 29°49' W 093°59'0 0.0
2018-Apr-23 19:30N 29°49' W 093°59'0 0.0
2018-Apr-23 19:00N 29°49' W 093°59'0 0.8
2018-Apr-23 18:30N 29°49' W 093°59'2 3.1
2018-Apr-23 18:00N 29°48' W 094°00'2 4.3
2018-Apr-23 17:30N 29°46' W 094°02'2 4.1
2018-Apr-23 17:00N 29°45' W 094°04'2 4.0
2018-Apr-23 16:30N 29°44' W 094°06'2 3.5
2018-Apr-23 16:00N 29°43' W 094°07'2 4.1
2018-Apr-23 15:30N 29°42' W 094°09'2 4.0
2018-Apr-23 15:00N 29°41' W 094°12'2 4.2
2018-Apr-23 14:30N 29°40' W 094°14'2 4.3
2018-Apr-23 14:00N 29°39' W 094°16'2 4.2
2018-Apr-23 13:30N 29°38' W 094°18'2 4.1
2018-Apr-23 13:00N 29°37' W 094°20'2 4.2
2018-Apr-23 12:30N 29°36' W 094°22'2 3.8
2018-Apr-23 12:00N 29°36' W 094°24'2 3.8
2018-Apr-23 11:30N 29°34' W 094°25'2 4.2
2018-Apr-23 11:00N 29°34' W 094°28'2 3.8
2018-Apr-23 10:30N 29°32' W 094°29'2 4.1
2018-Apr-23 10:00N 29°31' W 094°31'2 3.5
2018-Apr-23 09:30N 29°30' W 094°33'0 0.2
2018-Apr-23 09:00N 29°30' W 094°33'0 0.0
2018-Apr-23 08:29N 29°30' W 094°33'0 0.1
2018-Apr-23 08:00N 29°30' W 094°33'1 2.4
2018-Apr-23 07:29N 29°30' W 094°34'2 4.2
2018-Apr-23 07:00N 29°29' W 094°36'2 4.5
2018-Apr-23 06:28N 29°28' W 094°39'  

Dump ship's entire track history